Time;durP1;ratioP1;P1;durP2;ratioP2;P2;SDS_P1;SDS_P2;PMS_P1;PMS_P2;Temp;Humidity;BMP_temperature;BMP_pressure;BME280_temperature;BME280_humidity;BME280_pressure;Samples;Min_cycle;Max_cycle;Signal;HPM_P1;HPM_P2
2023/11/09 00:00:20;;;;;;;17.52;7.10;;;10.20;99.90;;;9.52;100.00;100331.53;4227621;28;20032;-71
2023/11/09 00:02:20;;;;;;;34.17;13.77;;;10.10;99.90;;;9.48;100.00;100324.91;4218983;28;20080;-70
2023/11/09 00:04:21;;;;;;;25.85;8.63;;;10.10;99.90;;;9.45;100.00;100330.50;4234463;28;20039;-70
2023/11/09 00:06:23;;;;;;;22.80;7.40;;;10.00;99.90;;;9.42;100.00;100318.47;4218906;28;20020;-71
2023/11/09 00:08:24;;;;;;;18.98;8.75;;;10.00;99.90;;;9.40;100.00;100322.25;4218711;28;20025;-70
2023/11/09 00:10:26;;;;;;;24.77;5.88;;;10.00;99.90;;;9.38;100.00;100317.13;4219419;28;20020;-71
2023/11/09 00:12:28;;;;;;;17.70;6.45;;;9.90;99.90;;;9.35;100.00;100317.47;4222507;28;20089;-71
2023/11/09 00:14:29;;;;;;;13.68;4.10;;;9.90;99.90;;;9.33;100.00;100322.06;4219018;28;20020;-70
2023/11/09 00:16:31;;;;;;;17.33;4.88;;;9.90;99.90;;;9.28;100.00;100313.00;4218822;28;20042;-70
2023/11/09 00:18:31;;;;;;;18.45;4.90;;;9.90;99.90;;;9.30;100.00;100324.19;4218752;28;20027;-70
2023/11/09 00:20:34;;;;;;;19.40;4.45;;;9.90;99.90;;;9.29;100.00;100325.97;4231561;28;20031;-70
2023/11/09 00:22:35;;;;;;;21.50;5.38;;;9.90;99.90;;;9.29;100.00;100330.41;4218791;28;20096;-70
2023/11/09 00:24:36;;;;;;;12.00;4.75;;;9.90;99.90;;;9.26;100.00;100322.84;4218770;28;20038;-70
2023/11/09 00:26:39;;;;;;;12.05;4.05;;;9.80;99.90;;;9.26;100.00;100326.28;4234149;28;20027;-70
2023/11/09 00:28:40;;;;;;;19.65;5.85;;;9.80;99.90;;;9.27;100.00;100327.13;4234028;28;20529;-70
2023/11/09 00:30:42;;;;;;;12.57;5.10;;;9.80;99.90;;;9.23;100.00;100326.63;4217247;28;20016;-70
2023/11/09 00:32:43;;;;;;;19.45;4.68;;;9.80;99.90;;;9.22;100.00;100321.53;4224430;28;20046;-70
2023/11/09 00:34:44;;;;;;;20.95;4.28;;;9.80;99.90;;;9.22;100.00;100334.69;4226176;28;20044;-70
2023/11/09 00:36:45;;;;;;;17.38;4.78;;;9.80;99.90;;;9.22;100.00;100334.69;4218293;28;20636;-70
2023/11/09 00:38:49;;;;;;;13.75;3.60;;;9.80;99.90;;;9.20;100.00;100337.44;4218443;28;20020;-70
2023/11/09 00:40:51;;;;;;;13.32;4.20;;;9.80;99.90;;;9.16;100.00;100336.13;4222089;28;20073;-70
2023/11/09 00:42:52;;;;;;;24.02;6.03;;;9.70;99.90;;;9.20;100.00;100336.66;4226015;28;20020;-70
2023/11/09 00:44:54;;;;;;;14.68;5.07;;;9.70;99.90;;;9.20;100.00;100339.28;4218407;28;20511;-70
2023/11/09 00:46:55;;;;;;;23.08;5.20;;;9.70;99.90;;;9.17;100.00;100343.03;4218301;28;20020;-70
2023/11/09 00:48:56;;;;;;;21.52;6.00;;;9.70;99.90;;;9.15;100.00;100338.91;4218670;28;20027;-70
2023/11/09 00:50:57;;;;;;;22.83;4.18;;;9.70;99.90;;;9.15;100.00;100339.75;4238543;28;20438;-70
2023/11/09 00:52:58;;;;;;;25.17;5.18;;;9.70;99.90;;;9.11;100.00;100338.38;4222603;28;20035;-70
2023/11/09 00:54:59;;;;;;;21.38;4.03;;;9.70;99.90;;;9.09;100.00;100344.78;4233914;28;20023;-70
2023/11/09 00:57:00;;;;;;;19.25;4.00;;;9.70;99.90;;;9.09;100.00;100339.53;4218524;28;20491;-70
2023/11/09 00:59:02;;;;;;;19.27;4.25;;;9.60;99.90;;;9.06;100.00;100343.31;4225870;28;20053;-70
2023/11/09 01:01:03;;;;;;;15.18;4.35;;;9.60;99.90;;;9.04;100.00;100352.34;4227869;28;20015;-70
2023/11/09 01:03:04;;;;;;;16.35;5.60;;;9.60;99.90;;;8.99;100.00;100344.91;4219564;28;20066;-70
2023/11/09 01:05:09;;;;;;;14.18;4.38;;;9.60;99.90;;;8.94;100.00;100343.72;4218422;28;20024;-70
2023/11/09 01:07:10;;;;;;;15.80;4.30;;;9.50;99.90;;;8.90;100.00;100345.81;4233847;28;20035;-71
2023/11/09 01:09:11;;;;;;;28.38;6.57;;;9.50;99.90;;;8.86;100.00;100340.06;4218176;28;20032;-70
2023/11/09 01:11:12;;;;;;;19.80;4.88;;;9.40;99.90;;;8.82;100.00;100353.69;4231531;28;20023;-70
2023/11/09 01:13:12;;;;;;;15.82;5.47;;;9.40;99.90;;;8.79;100.00;100354.81;4218393;28;20029;-71
2023/11/09 01:15:13;;;;;;;17.77;4.90;;;9.40;99.90;;;8.77;100.00;100354.16;4218203;28;20024;-70
2023/11/09 01:17:14;;;;;;;17.52;4.63;;;9.40;99.90;;;8.78;100.00;100341.84;4218227;28;20039;-70
2023/11/09 01:19:15;;;;;;;14.88;5.15;;;9.30;99.90;;;8.73;100.00;100344.91;4218861;28;20032;-71
2023/11/09 01:21:16;;;;;;;14.63;4.97;;;9.30;99.90;;;8.72;100.00;100353.75;4229852;28;20024;-70
2023/11/09 01:23:19;;;;;;;15.27;4.72;;;9.30;99.90;;;8.68;100.00;100346.34;4217996;28;20040;-70
2023/11/09 01:25:19;;;;;;;17.85;4.93;;;9.30;99.90;;;8.63;100.00;100352.06;4218107;28;20394;-71
2023/11/09 01:27:20;;;;;;;17.13;4.15;;;9.30;99.90;;;8.59;100.00;100348.09;4233728;28;20028;-71
2023/11/09 01:29:21;;;;;;;11.32;3.65;;;9.20;99.90;;;8.56;100.00;100358.91;4218237;28;20031;-70
2023/11/09 01:31:22;;;;;;;17.58;4.38;;;9.20;99.90;;;8.52;100.00;100357.56;4218236;28;20449;-70
2023/11/09 01:33:23;;;;;;;17.90;4.22;;;9.20;99.90;;;8.53;100.00;100347.88;4224169;28;20048;-70
2023/11/09 01:35:24;;;;;;;17.00;4.50;;;9.10;99.90;;;8.50;100.00;100345.56;4219667;28;20059;-70
2023/11/09 01:37:25;;;;;;;20.02;3.63;;;9.10;99.90;;;8.47;100.00;100349.31;4233518;28;20031;-70
2023/11/09 01:39:25;;;;;;;14.52;5.07;;;9.10;99.90;;;8.43;100.00;100336.63;4220224;28;20036;-70
2023/11/09 01:41:26;;;;;;;19.88;4.78;;;9.00;99.90;;;8.39;100.00;100351.06;4236813;28;20030;-70
2023/11/09 01:43:27;;;;;;;18.10;5.05;;;9.00;99.90;;;8.39;100.00;100351.06;4219968;28;20028;-70
2023/11/09 01:45:28;;;;;;;22.50;4.47;;;9.00;99.90;;;8.37;100.00;100352.97;4221158;28;20032;-70
2023/11/09 01:47:29;;;;;;;17.23;4.13;;;9.00;99.90;;;8.37;100.00;100351.19;4236854;28;20034;-70
2023/11/09 01:49:30;;;;;;;18.67;4.15;;;8.90;99.90;;;8.33;100.00;100353.28;4221101;28;20024;-70
2023/11/09 01:51:32;;;;;;;12.18;3.10;;;8.90;99.90;;;8.30;100.00;100356.22;4236416;28;20035;-70
2023/11/09 01:53:33;;;;;;;19.15;4.30;;;8.90;99.90;;;8.29;100.00;100351.97;4236801;28;20027;-70
2023/11/09 01:55:34;;;;;;;18.13;4.53;;;8.90;99.90;;;8.29;100.00;100356.38;4227006;28;20024;-70
2023/11/09 01:57:39;;;;;;;21.63;4.18;;;8.90;99.90;;;8.29;100.00;100351.13;4232381;28;20122;-70
2023/11/09 01:59:43;;;;;;;;;;;8.90;99.90;;;8.19;100.00;100350.34;4222511;28;20552;-70
2023/11/09 02:01:45;;;;;;;26.13;4.90;;;8.80;99.90;;;8.15;100.00;100351.63;4220177;28;19911;-70
2023/11/09 02:03:46;;;;;;;19.25;4.18;;;8.80;99.90;;;8.14;100.00;100347.34;4236571;28;20034;-70
2023/11/09 02:05:49;;;;;;;9.25;3.60;;;8.80;99.90;;;8.12;100.00;100349.31;4220733;28;20491;-70
2023/11/09 02:07:52;;;;;;;14.38;4.25;;;8.70;99.90;;;8.06;100.00;100349.91;4236093;28;20016;-70
2023/11/09 02:09:55;;;;;;;17.45;4.47;;;8.70;99.90;;;7.99;100.00;100348.84;4220885;28;20150;-70
2023/11/09 02:11:57;;;;;;;15.18;4.97;;;8.60;99.90;;;7.97;100.00;100345.53;4236358;28;20051;-70
2023/11/09 02:13:58;;;;;;;22.33;5.05;;;8.60;99.90;;;7.95;100.00;100343.03;4236337;28;20510;-70
2023/11/09 02:16:01;;;;;;;27.65;5.82;;;8.60;99.90;;;7.99;100.00;100346.19;4236251;28;20024;-70
2023/11/09 02:18:02;;;;;;;12.73;4.73;;;8.60;99.90;;;7.97;100.00;100340.28;4220751;28;20025;-70
2023/11/09 02:20:04;;;;;;;20.50;5.00;;;8.60;99.90;;;7.96;100.00;100343.88;4229531;28;20024;-70
2023/11/09 02:22:05;;;;;;;16.55;3.92;;;8.60;99.90;;;7.94;100.00;100336.16;4224836;28;20115;-70
2023/11/09 02:24:11;;;;;;;13.90;5.32;;;8.50;99.90;;;7.91;100.00;100333.84;4220354;28;20052;-70
2023/11/09 02:26:12;;;;;;;14.73;4.13;;;8.60;99.90;;;7.93;100.00;100333.66;4236113;28;20040;-70
2023/11/09 02:28:14;;;;;;;14.10;4.50;;;8.60;99.90;;;7.88;100.00;100328.03;4219339;28;20031;-70
2023/11/09 02:30:14;;;;;;;21.80;4.47;;;8.50;99.90;;;7.88;100.00;100330.66;4226396;28;20019;-70
2023/11/09 02:32:17;;;;;;;14.43;3.58;;;8.50;99.90;;;7.87;100.00;100329.84;4220985;28;20506;-70
2023/11/09 02:34:23;;;;;;;25.08;4.47;;;8.50;99.90;;;7.82;100.00;100317.13;4227852;28;20036;-70
2023/11/09 02:36:24;;;;;;;12.88;4.07;;;8.50;99.90;;;7.86;100.00;100327.34;4220191;28;20097;-70
2023/11/09 02:38:25;;;;;;;22.17;4.68;;;8.50;99.90;;;7.87;100.00;100313.25;4220161;28;20032;-70
2023/11/09 02:40:28;;;;;;;14.63;4.50;;;8.50;99.90;;;7.88;100.00;100321.00;4220359;28;20163;-70
2023/11/09 02:42:28;;;;;;;20.02;3.95;;;8.50;99.90;;;7.85;100.00;100321.28;4220297;28;20548;-70
2023/11/09 02:44:29;;;;;;;18.63;4.95;;;8.50;99.90;;;7.84;100.00;100318.81;4220259;28;20035;-70
2023/11/09 02:46:30;;;;;;;17.40;3.90;;;8.50;99.90;;;7.79;100.00;100301.69;4220039;28;20528;-70
2023/11/09 02:48:31;;;;;;;27.77;5.00;;;8.40;99.90;;;7.80;100.00;100307.78;4235873;28;20023;-70
2023/11/09 02:50:32;;;;;;;15.80;3.92;;;8.40;99.90;;;7.77;100.00;100306.28;4218421;28;20024;-70
2023/11/09 02:52:33;;;;;;;15.27;4.10;;;8.40;99.90;;;7.72;100.00;100294.56;4219889;28;20059;-70
2023/11/09 02:54:34;;;;;;;22.30;3.92;;;8.30;99.90;;;7.69;100.00;100295.69;4219999;28;20453;-70
2023/11/09 02:56:36;;;;;;;23.67;4.32;;;8.30;99.90;;;7.66;100.00;100289.91;4220063;28;20039;-70
2023/11/09 02:58:37;;;;;;;22.35;4.05;;;8.30;99.90;;;7.64;100.00;100299.75;4220042;28;20077;-70
2023/11/09 03:00:38;;;;;;;19.23;4.38;;;8.30;99.90;;;7.58;100.00;100301.16;4220165;28;20028;-70
2023/11/09 03:02:39;;;;;;;17.58;3.47;;;8.20;99.90;;;7.53;100.00;100295.50;4225388;28;20498;-70
2023/11/09 03:04:41;;;;;;;15.07;3.90;;;8.10;99.90;;;7.47;100.00;100296.09;4221478;28;20035;-70
2023/11/09 03:06:42;;;;;;;22.73;4.28;;;8.10;99.90;;;7.50;100.00;100293.19;4235247;28;20104;-70
2023/11/09 03:08:43;;;;;;;22.65;4.57;;;8.10;99.90;;;7.48;100.00;100291.69;4235687;28;20031;-70
2023/11/09 03:10:44;;;;;;;20.50;4.70;;;8.10;99.90;;;7.46;100.00;100297.09;4236610;28;20563;-70
2023/11/09 03:12:47;;;;;;;9.85;3.20;;;8.10;99.90;;;7.41;100.00;100291.44;4236710;28;20031;-70
2023/11/09 03:14:47;;;;;;;13.43;3.38;;;8.00;99.90;;;7.40;100.00;100292.44;4236831;28;20027;-70
2023/11/09 03:16:49;;;;;;;14.25;4.50;;;8.00;99.90;;;7.40;100.00;100288.97;4236731;28;20016;-70
2023/11/09 03:18:49;;;;;;;22.60;3.88;;;8.00;99.90;;;7.41;100.00;100291.44;4236462;28;20019;-70
2023/11/09 03:20:51;;;;;;;17.95;4.13;;;8.00;99.90;;;7.44;100.00;100283.28;4234339;28;20068;-70
2023/11/09 03:22:52;;;;;;;14.25;3.80;;;8.00;99.90;;;7.50;100.00;100287.94;4219411;28;20024;-70
2023/11/09 03:24:53;;;;;;;16.20;3.75;;;8.10;99.90;;;7.60;100.00;100286.09;4235170;28;20032;-70
2023/11/09 03:26:54;;;;;;;11.57;3.78;;;8.20;99.90;;;7.72;100.00;100290.16;4218277;28;20024;-70
2023/11/09 03:28:56;;;;;;;18.50;3.90;;;8.30;99.90;;;7.80;100.00;100287.59;4219338;28;20494;-70
2023/11/09 03:30:59;;;;;;;18.00;4.35;;;8.40;99.90;;;7.85;100.00;100278.44;4235333;28;20076;-70
2023/11/09 03:33:00;;;;;;;18.75;3.88;;;8.40;99.90;;;7.87;100.00;100281.75;4237570;27;20031;-70
2023/11/09 03:35:01;;;;;;;11.27;3.85;;;8.40;99.90;;;7.91;100.00;100280.47;4224091;28;20028;-70
2023/11/09 03:37:02;;;;;;;9.82;2.95;;;8.50;99.90;;;7.97;100.00;100279.88;4218876;28;20031;-70
2023/11/09 03:39:03;;;;;;;9.90;3.40;;;8.50;99.90;;;8.02;100.00;100275.00;4219414;28;20024;-70
2023/11/09 03:41:09;;;;;;;13.40;3.95;;;8.60;99.90;;;8.07;100.00;100283.22;4220396;28;20449;-71
2023/11/09 03:43:10;;;;;;;19.80;3.55;;;8.60;99.90;;;8.05;100.00;100277.31;4231752;28;20020;-71
2023/11/09 03:45:11;;;;;;;23.65;5.20;;;8.60;99.90;;;7.96;100.00;100276.41;4235993;28;20042;-70
2023/11/09 03:47:12;;;;;;;13.27;4.18;;;8.60;99.90;;;7.96;100.00;100276.41;4235999;28;20031;-70
2023/11/09 03:49:12;;;;;;;24.52;3.58;;;8.50;99.90;;;7.93;100.00;100271.47;4236160;28;20060;-70
2023/11/09 03:51:13;;;;;;;11.95;3.22;;;8.50;99.90;;;7.92;100.00;100274.22;4235823;28;20016;-71
2023/11/09 03:53:14;;;;;;;29.65;3.72;;;8.50;99.90;;;7.89;100.00;100269.28;4234768;28;20605;-70
2023/11/09 03:55:15;;;;;;;24.23;4.72;;;8.50;99.90;;;7.88;100.00;100276.34;4236006;28;20030;-71
2023/11/09 03:57:16;;;;;;;16.92;3.78;;;8.50;99.90;;;7.86;100.00;100274.84;4236100;28;20032;-71
2023/11/09 03:59:17;;;;;;;22.20;4.45;;;8.50;99.90;;;7.82;100.00;100277.75;4235874;28;20448;-70
2023/11/09 04:01:19;;;;;;;15.65;3.88;;;8.50;99.90;;;7.82;100.00;100280.38;4234486;28;20031;-71
2023/11/09 04:03:20;;;;;;;14.70;2.95;;;8.50;99.90;;;7.82;100.00;100285.63;4235469;28;20052;-70
2023/11/09 04:05:22;;;;;;;16.35;3.22;;;8.50;99.90;;;7.84;100.00;100289.91;4235929;28;20027;-70
2023/11/09 04:07:23;;;;;;;12.63;2.60;;;8.50;99.90;;;7.86;100.00;100285.34;4235568;28;20024;-70
2023/11/09 04:09:24;;;;;;;15.30;3.70;;;8.50;99.90;;;7.90;100.00;100291.94;4234298;28;20026;-70
2023/11/09 04:11:26;;;;;;;18.08;3.75;;;8.50;99.90;;;7.96;100.00;100291.34;4235985;28;20031;-70
2023/11/09 04:13:27;;;;;;;21.38;4.65;;;8.60;99.90;;;8.02;100.00;100291.59;4234681;28;20015;-70
2023/11/09 04:15:27;;;;;;;25.95;5.40;;;8.60;99.90;;;8.12;100.00;100279.16;4235701;28;20037;-71
2023/11/09 04:17:29;;;;;;;16.70;4.25;;;8.70;99.90;;;8.27;100.00;100275.06;4235536;28;20028;-71
2023/11/09 04:19:29;;;;;;;20.10;4.40;;;8.80;99.90;;;8.35;100.00;100276.94;4235679;28;20032;-71
2023/11/09 04:21:31;;;;;;;26.77;3.88;;;8.90;99.90;;;8.43;100.00;100282.25;4226746;28;20031;-71
2023/11/09 04:23:31;;;;;;;18.17;3.45;;;9.00;99.90;;;8.50;100.00;100280.66;4218780;28;20028;-71
2023/11/09 04:25:32;;;;;;;18.70;3.88;;;9.10;99.90;;;8.52;100.00;100283.97;4218504;28;20028;-70
2023/11/09 04:27:34;;;;;;;17.02;2.72;;;9.10;99.90;;;8.56;100.00;100279.22;4222411;28;20036;-70
2023/11/09 04:29:35;;;;;;;21.08;3.33;;;9.10;99.90;;;8.57;100.00;100279.06;4218864;28;20482;-70
2023/11/09 04:31:37;;;;;;;12.65;3.30;;;9.20;99.90;;;8.54;100.00;100274.09;4218814;28;20024;-70
2023/11/09 04:33:38;;;;;;;20.20;4.05;;;9.20;99.90;;;8.57;100.00;100271.16;4225968;28;20406;-70
2023/11/09 04:35:42;;;;;;;13.48;3.25;;;9.10;99.90;;;8.55;100.00;100267.03;4218501;28;20040;-70
2023/11/09 04:37:44;;;;;;;14.32;3.33;;;9.10;99.90;;;8.54;100.00;100266.22;4233809;28;20022;-70
2023/11/09 04:39:51;;;;;;;14.48;3.22;;;9.10;99.90;;;8.48;100.00;100269.50;4218667;28;20039;-70
2023/11/09 04:41:52;;;;;;;12.13;4.03;;;9.10;99.90;;;8.46;100.00;100267.97;4233476;28;20030;-71
2023/11/09 04:43:55;;;;;;;16.17;4.10;;;9.00;99.90;;;8.45;100.00;100269.78;4218572;28;20036;-71
2023/11/09 04:46:05;;;;;;;9.65;2.60;;;9.00;99.90;;;8.48;100.00;100272.13;4218620;28;20031;-71
2023/11/09 04:48:08;;;;;;;10.75;2.70;;;9.00;99.90;;;8.51;100.00;100273.63;4218397;28;20024;-70
2023/11/09 04:50:17;;;;;;;12.32;2.80;;;9.10;99.90;;;8.54;100.00;100286.44;4220935;28;20031;-70
2023/11/09 04:52:19;;;;;;;22.98;3.53;;;9.10;99.90;;;8.60;100.00;100294.50;4226811;28;20529;-70
2023/11/09 04:54:20;;;;;;;18.95;3.25;;;9.20;99.90;;;8.63;100.00;100286.31;4218368;28;20048;-70
2023/11/09 04:58:47;;;;;;;19.25;3.97;;;9.20;99.90;;;8.72;100.00;100289.84;4218409;28;20083;-70
2023/11/09 05:07:49;;;;;;;9.20;2.30;;;9.50;99.90;;;8.97;100.00;100282.91;4218017;28;20027;-70
2023/11/09 05:09:51;;;;;;;12.50;2.35;;;9.50;99.90;;;9.00;100.00;100282.59;4218326;28;20471;-70
2023/11/09 05:11:51;;;;;;;15.65;2.80;;;9.60;99.90;;;9.01;100.00;100292.97;4234041;28;20015;-70
2023/11/09 05:13:52;;;;;;;20.45;4.13;;;9.60;99.90;;;9.06;100.00;100298.56;4219668;28;20066;-70
2023/11/09 05:15:53;;;;;;;10.55;2.35;;;9.60;99.90;;;9.08;100.00;100282.66;4221512;28;20020;-70
2023/11/09 05:17:54;;;;;;;20.33;3.22;;;9.70;99.90;;;9.10;100.00;100272.78;4237389;28;20035;-70
2023/11/09 05:19:57;;;;;;;23.15;2.67;;;9.70;99.90;;;9.17;100.00;100285.13;4229208;28;20023;-70
2023/11/09 05:21:58;;;;;;;18.65;3.53;;;9.70;99.90;;;9.19;100.00;100282.38;4226925;28;20032;-70
2023/11/09 05:23:59;;;;;;;13.38;2.75;;;9.70;99.90;;;9.17;100.00;100279.88;4221405;28;20024;-70
2023/11/09 05:26:01;;;;;;;13.50;2.78;;;9.80;99.90;;;9.23;100.00;100299.47;4221491;28;20051;-70
2023/11/09 05:28:03;;;;;;;14.30;2.63;;;9.80;99.90;;;9.26;100.00;100293.88;4221231;28;20032;-71
2023/11/09 05:30:04;;;;;;;8.25;2.75;;;9.80;99.90;;;9.32;100.00;100294.09;4221508;28;20036;-71
2023/11/09 05:32:06;;;;;;;12.80;2.40;;;9.90;99.90;;;9.35;100.00;100282.41;4221275;28;20031;-70
2023/11/09 05:34:07;;;;;;;10.95;2.55;;;9.90;99.90;;;9.41;100.00;100281.78;4244673;27;20048;-70
2023/11/09 05:36:08;;;;;;;8.55;2.25;;;10.00;99.90;;;9.38;100.00;100266.28;4219870;28;20039;-70
2023/11/09 05:38:10;;;;;;;5.93;1.30;;;10.00;99.90;;;9.41;100.00;100266.81;4236980;28;20406;-70
2023/11/09 05:40:12;;;;;;;7.55;1.08;;;10.00;99.90;;;9.40;100.00;100262.53;4221314;28;20032;-70
2023/11/09 05:42:12;;;;;;;7.70;1.52;;;10.00;99.90;;;9.39;100.00;100257.44;4221289;28;20056;-70
2023/11/09 05:44:13;;;;;;;4.25;1.60;;;10.00;99.90;;;9.35;100.00;100261.34;4223507;28;20443;-70
2023/11/09 05:46:14;;;;;;;11.27;1.48;;;9.90;99.90;;;9.32;100.00;100261.66;4232357;28;20039;-70
2023/11/09 05:48:16;;;;;;;5.22;2.20;;;9.90;99.90;;;9.26;100.00;100262.31;4236684;28;20050;-70
2023/11/09 05:50:17;;;;;;;6.38;1.50;;;9.90;99.90;;;9.25;100.00;100274.66;4238094;28;20107;-70
2023/11/09 05:52:18;;;;;;;7.15;1.40;;;9.80;99.90;;;9.15;100.00;100266.06;4237809;28;20055;-70
2023/11/09 05:54:19;;;;;;;6.72;2.42;;;9.80;99.90;;;9.02;100.00;100270.91;4238062;28;20038;-70
2023/11/09 05:56:23;;;;;;;10.13;1.75;;;9.70;99.90;;;8.90;100.00;100262.50;4236521;28;20510;-70
2023/11/09 05:58:24;;;;;;;8.68;1.35;;;9.60;99.90;;;8.83;100.00;100271.16;4238118;28;20035;-70
2023/11/09 06:00:26;;;;;;;15.45;2.60;;;9.50;99.90;;;8.72;100.00;100261.72;4236685;28;20038;-70
2023/11/09 06:02:27;;;;;;;11.40;2.55;;;9.40;99.90;;;8.69;100.00;100258.63;4208309;28;20078;-70
2023/11/09 06:04:28;;;;;;;8.07;2.85;;;9.30;99.90;;;8.72;100.00;100267.00;4234134;28;20482;-70
2023/11/09 06:06:30;;;;;;;6.88;2.20;;;9.30;99.90;;;8.76;100.00;100263.06;4237510;28;20028;-70
2023/11/09 06:08:31;;;;;;;14.07;2.80;;;9.40;99.90;;;8.81;100.00;100262.63;4237718;28;20038;-70
2023/11/09 06:10:32;;;;;;;13.35;2.50;;;9.40;99.90;;;8.88;100.00;100268.88;4237740;28;20023;-70
2023/11/09 06:12:33;;;;;;;12.10;3.50;;;9.40;99.90;;;8.86;100.00;100258.53;4237463;27;20027;-70
2023/11/09 06:14:35;;;;;;;16.20;4.18;;;9.40;99.90;;;8.90;100.00;100266.91;4237692;28;20532;-70
2023/11/09 06:16:37;;;;;;;16.63;3.47;;;9.40;99.90;;;8.83;100.00;100271.16;4237640;28;20085;-70
2023/11/09 06:18:38;;;;;;;11.63;4.18;;;9.40;99.90;;;8.73;100.00;100273.06;4236532;28;20023;-70
2023/11/09 06:20:39;;;;;;;16.27;2.63;;;9.30;99.90;;;8.64;100.00;100271.38;4237033;28;20038;-70
2023/11/09 06:22:40;;;;;;;10.70;2.83;;;9.20;99.90;;;8.53;100.00;100279.53;4220539;28;20028;-70
2023/11/09 06:24:42;;;;;;;9.70;2.78;;;9.10;99.90;;;8.46;100.00;100286.38;4218784;28;20032;-70
2023/11/09 06:26:43;;;;;;;8.90;2.70;;;9.00;99.90;;;8.39;100.00;100280.94;4220018;28;20493;-70
2023/11/09 06:28:44;;;;;;;12.75;3.20;;;9.00;99.90;;;8.41;100.00;100281.59;4220452;28;20034;-70
2023/11/09 06:30:44;;;;;;;8.13;2.78;;;9.00;99.90;;;8.51;100.00;100279.66;4236311;28;20024;-70
2023/11/09 06:32:45;;;;;;;12.00;2.40;;;9.00;99.90;;;8.56;100.00;100277.41;4221495;28;20089;-70
2023/11/09 06:34:46;;;;;;;12.63;3.28;;;9.10;99.90;;;8.58;100.00;100272.00;4226334;28;20044;-70
2023/11/09 06:36:48;;;;;;;12.68;2.92;;;9.10;99.90;;;8.53;100.00;100269.84;4219969;28;20032;-70
2023/11/09 06:38:48;;;;;;;9.32;2.75;;;9.10;99.90;;;8.47;100.00;100273.09;4238696;27;20412;-70
2023/11/09 06:40:49;;;;;;;9.93;3.17;;;9.00;99.90;;;8.41;100.00;100265.81;4231027;28;20028;-70
2023/11/09 06:42:50;;;;;;;9.18;2.63;;;9.00;99.90;;;8.37;100.00;100271.50;4220235;28;20376;-70
2023/11/09 06:44:52;;;;;;;12.18;2.40;;;9.00;99.90;;;8.24;100.00;100270.06;4231817;28;20069;-70
2023/11/09 06:46:53;;;;;;;10.38;2.13;;;8.90;99.90;;;8.15;100.00;100272.81;4220684;28;20032;-70
2023/11/09 06:48:54;;;;;;;13.77;2.97;;;8.80;99.90;;;8.04;100.00;100268.59;4220217;28;20407;-70
2023/11/09 06:50:55;;;;;;;10.57;3.33;;;8.70;99.90;;;7.95;100.00;100273.94;4220147;28;20486;-70
2023/11/09 06:52:56;;;;;;;7.35;2.53;;;8.60;99.90;;;7.90;100.00;100273.56;4219995;28;20016;-70
2023/11/09 06:54:56;;;;;;;9.75;3.38;;;8.50;99.90;;;7.82;100.00;100259.38;4234958;28;20528;-70
2023/11/09 06:56:58;;;;;;;15.68;3.63;;;8.50;99.90;;;7.84;100.00;100268.91;4231040;28;20024;-70
2023/11/09 06:59:00;;;;;;;20.88;6.57;;;8.50;99.90;;;7.84;100.00;100272.38;4226038;28;20047;-70
2023/11/09 07:01:01;;;;;;;21.73;7.18;;;8.40;99.90;;;7.85;100.00;100262.69;4223618;28;20027;-70
2023/11/09 07:03:02;;;;;;;19.20;7.40;;;8.50;99.90;;;7.89;100.00;100264.03;4219979;28;20028;-70
2023/11/09 07:05:05;;;;;;;23.15;8.18;;;8.50;99.90;;;7.95;100.00;100260.81;4219826;28;20032;-70
2023/11/09 07:07:08;;;;;;;30.92;9.05;;;8.50;99.90;;;8.08;100.00;100263.88;4235270;28;20026;-70
2023/11/09 07:09:09;;;;;;;23.08;6.63;;;8.60;99.90;;;8.28;100.00;100268.00;4227048;28;20363;-70
2023/11/09 07:11:10;;;;;;;24.58;7.15;;;8.70;99.90;;;8.28;100.00;100257.50;4219821;28;20060;-70
2023/11/09 07:13:11;;;;;;;22.85;6.90;;;8.80;99.90;;;8.34;100.00;100259.50;4219866;28;20027;-70
2023/11/09 07:15:13;;;;;;;19.00;6.05;;;8.90;99.90;;;8.43;100.00;100263.03;4219847;28;20386;-71
2023/11/09 07:17:14;;;;;;;21.73;5.28;;;9.00;99.90;;;8.39;100.00;100262.53;4235265;28;20030;-70
2023/11/09 07:19:15;;;;;;;9.40;4.18;;;8.90;99.90;;;8.40;100.00;100263.31;4235134;28;20498;-70
2023/11/09 07:21:20;;;;;;;16.05;3.88;;;8.90;99.90;;;8.39;100.00;100277.47;4231157;28;20028;-70
2023/11/09 07:23:24;;;;;;;13.20;3.50;;;9.00;99.90;;;8.39;100.00;100272.22;4219840;28;20024;-70
2023/11/09 07:25:26;;;;;;;10.02;4.13;;;9.00;99.90;;;8.48;100.00;100281.81;4219476;28;20036;-70
2023/11/09 07:27:27;;;;;;;15.43;4.13;;;9.00;99.90;;;8.53;100.00;100272.47;4220236;28;20020;-70
2023/11/09 07:29:28;;;;;;;18.33;5.40;;;9.10;99.90;;;8.65;100.00;100275.66;4230101;28;20028;-70
2023/11/09 07:31:29;;;;;;;24.48;8.20;;;9.10;99.90;;;8.70;100.00;100271.59;4219552;28;20662;-70
2023/11/09 07:33:30;;;;;;;21.00;5.47;;;9.20;99.90;;;8.75;100.00;100266.69;4226378;28;20050;-70
2023/11/09 07:35:31;;;;;;;19.73;6.25;;;9.30;99.90;;;8.79;100.00;100270.66;4218974;28;20016;-70
2023/11/09 07:37:32;;;;;;;15.23;3.25;;;9.30;99.90;;;8.82;100.00;100278.22;4218930;28;20031;-70
2023/11/09 07:39:33;;;;;;;16.35;3.53;;;9.40;99.90;;;8.87;100.00;100277.75;4241709;27;20099;-70
2023/11/09 07:41:36;;;;;;;8.55;2.45;;;9.40;99.90;;;8.88;100.00;100280.25;4223295;28;20119;-70
2023/11/09 07:43:37;;;;;;;18.38;2.33;;;9.40;99.90;;;8.91;100.00;100279.09;4219086;28;20039;-70
2023/11/09 07:45:38;;;;;;;13.32;2.40;;;9.40;99.90;;;8.90;100.00;100277.44;4219290;28;20032;-70
2023/11/09 07:47:39;;;;;;;12.43;3.33;;;9.50;99.90;;;8.94;100.00;100280.59;4219312;28;20020;-70
2023/11/09 07:49:40;;;;;;;12.90;2.40;;;9.50;99.90;;;9.00;100.00;100277.31;4245953;27;20447;-70
2023/11/09 07:51:43;;;;;;;9.35;2.05;;;9.60;99.90;;;9.12;100.00;100282.16;4219931;28;20023;-70
2023/11/09 07:53:45;;;;;;;13.23;2.78;;;9.70;99.90;;;9.25;100.00;100281.72;4226047;28;20024;-70
2023/11/09 07:55:48;;;;;;;13.82;2.58;;;9.70;99.90;;;9.23;100.00;100287.13;4224915;28;20533;-70
2023/11/09 07:57:49;;;;;;;14.68;1.80;;;9.70;99.90;;;9.26;100.00;100288.63;4219041;28;20032;-70
2023/11/09 07:59:50;;;;;;;9.82;2.15;;;9.80;99.90;;;9.37;100.00;100285.72;4228460;28;20032;-70
2023/11/09 08:01:51;;;;;;;12.90;2.63;;;9.90;99.90;;;9.54;100.00;100287.41;4219052;28;20043;-70
2023/11/09 08:03:52;;;;;;;9.93;2.20;;;10.10;99.90;;;9.71;100.00;100289.09;4219048;28;20024;-71
2023/11/09 08:05:53;;;;;;;11.10;2.38;;;10.30;99.90;;;9.95;100.00;100298.84;4218702;28;20039;-70
2023/11/09 08:07:54;;;;;;;15.00;2.65;;;10.50;99.90;;;10.25;100.00;100307.97;4218653;28;20047;-70
2023/11/09 08:09:56;;;;;;;10.32;1.73;;;10.70;99.90;;;10.49;100.00;100310.59;4226181;28;20024;-70
2023/11/09 08:11:57;;;;;;;7.75;1.42;;;10.90;99.90;;;10.62;100.00;100300.38;4219024;28;20491;-71
2023/11/09 08:13:58;;;;;;;10.23;1.80;;;11.10;99.90;;;10.66;100.00;100309.63;4218820;28;20024;-70
2023/11/09 08:15:59;;;;;;;7.75;2.00;;;11.10;99.90;;;10.65;100.00;100310.59;4218712;28;20564;-70
2023/11/09 08:17:59;;;;;;;8.52;2.00;;;11.20;99.90;;;10.67;100.00;100311.25;4218912;28;20051;-70
2023/11/09 08:20:01;;;;;;;13.85;1.77;;;11.30;99.90;;;10.74;100.00;100308.78;4239602;27;20015;-70
2023/11/09 08:22:02;;;;;;;11.00;1.95;;;11.30;99.90;;;10.76;100.00;100310.25;4228452;28;20077;-70
2023/11/09 08:24:03;;;;;;;10.27;2.03;;;11.30;99.90;;;10.78;100.00;100315.38;4218481;28;20028;-70
2023/11/09 08:26:05;;;;;;;10.90;1.85;;;11.40;99.90;;;10.91;100.00;100315.66;4234242;28;20031;-70
2023/11/09 08:28:06;;;;;;;9.05;1.92;;;11.50;99.90;;;11.12;100.00;100321.22;4227102;28;20066;-70
2023/11/09 08:30:11;;;;;;;10.27;1.83;;;11.70;99.90;;;11.34;100.00;100314.38;4222476;28;20034;-70
2023/11/09 08:32:12;;;;;;;20.13;3.45;;;11.90;99.90;;;11.36;100.00;100333.50;4232883;28;20415;-70
2023/11/09 08:34:13;;;;;;;14.77;3.25;;;12.00;99.90;;;11.31;100.00;100343.78;4229712;28;20065;-70